CDT,Max TemperatureF,Mean TemperatureF,Min TemperatureF,Max Dew PointF,MeanDew PointF,Min DewpointF,Max Humidity, Mean Humidity, Min Humidity, Max Sea Level PressureIn, Mean Sea Level PressureIn, Min Sea Level PressureIn, Max VisibilityMiles, Mean VisibilityMiles, Min VisibilityMiles, Max Wind SpeedMPH, Mean Wind SpeedMPH, Max Gust SpeedMPH,PrecipitationIn, CloudCover, Events, WindDirDegrees
2014-3-1,71,59,47,54,45,36,72,59,45,30.14,30.07,30.02,10,10,10,14,4,18,0.00,7,,167
2014-3-2,65,48,30,58,36,28,92,82,72,30.15,30.05,30.00,10,5,2,22,12,30,2.39,8,Rain-Thunderstorm,11
2014-3-3,31,23,15,27,14,11,92,82,71,30.41,30.29,30.02,10,4,2,29,14,38,0.01,8,Rain-Snow,10
2014-3-4,34,27,19,27,22,15,92,81,69,30.32,30.22,30.16,10,8,1,13,6,18,0.00,7,,51
2014-3-5,40,35,30,34,31,28,96,88,79,30.23,30.17,30.12,5,2,0,15,7,25,0.00,8,Fog,44
2014-3-6,42,38,33,34,31,27,96,80,64,30.16,30.11,30.05,10,6,0,14,7,17,0.00,7,,8
2014-3-7,60,45,29,42,35,26,92,69,46,30.09,30.04,29.99,10,9,7,13,4,21,0.00,2,,209
2014-3-8,66,52,38,46,41,36,92,68,44,30.23,30.12,30.03,10,10,7,17,7,22,T,5,Rain,264
2014-3-9,53,47,41,38,37,35,82,68,54,30.31,30.24,30.16,10,5,2,13,6,21,T,7,,360
2014-3-10,68,52,36,50,43,35,92,69,45,30.16,30.03,29.88,10,9,5,17,7,24,0.00,3,,219
2014-3-11,77,64,50,61,54,47,89,66,43,29.87,29.72,29.61,10,10,10,23,10,28,T,4,Rain,206
2014-3-12,65,54,43,61,39,20,84,57,29,30.17,29.85,29.56,10,10,9,33,15,44,0.00,5,,304
2014-3-13,64,48,33,31,27,22,76,42,15,30.25,30.18,30.12,10,10,10,14,3,18,0.00,0,,226
2014-3-14,65,55,45,39,33,29,55,43,30,30.15,30.09,30.04,10,10,10,26,12,37,T,5,Rain,202
2014-3-15,68,57,45,54,46,39,86,67,48,30.07,29.99,29.87,10,10,8,15,6,18,0.06,8,Rain,160
2014-3-16,59,48,36,56,49,33,93,88,83,29.87,29.71,29.62,10,7,1,26,12,33,0.40,8,Rain,56
2014-3-17,48,41,33,34,31,26,85,72,58,29.90,29.86,29.80,10,10,9,21,9,26,T,7,Rain,357
2014-3-18,63,48,33,42,37,30,92,68,43,29.93,29.84,29.73,10,10,9,24,10,30,0.00,2,,182
2014-3-19,64,56,48,50,41,35,83,63,42,30.16,29.99,29.84,10,10,10,22,11,28,0.00,5,,269
2014-3-20,67,54,40,35,30,23,70,45,20,30.22,30.14,30.07,10,10,10,9,3,16,0.00,0,,335
2014-3-21,73,57,41,40,33,27,53,39,25,30.08,30.00,29.90,10,10,10,18,9,23,0.00,5,,192
2014-3-22,69,59,48,48,40,34,83,58,32,30.14,30.04,29.94,10,10,7,21,11,29,0.14,6,Rain,19
2014-3-23,54,48,41,39,31,22,82,57,32,30.32,30.25,30.11,10,10,7,23,14,28,0.04,4,Rain,18
2014-3-24,57,46,35,21,18,11,56,36,16,30.30,30.20,30.06,10,10,10,20,9,25,0.00,4,,42
2014-3-25,51,45,39,28,20,14,64,44,24,30.28,30.22,30.11,10,10,10,25,11,35,0.00,3,,334
2014-3-26,58,45,31,22,18,14,59,39,19,30.38,30.26,30.13,10,10,10,16,7,21,T,3,,143
2014-3-27,70,60,49,57,46,24,93,66,38,30.10,29.92,29.76,10,8,2,31,16,37,1.04,8,Rain-Thunderstorm,173
2014-3-28,75,67,58,63,59,56,97,81,64,29.96,29.90,29.84,10,8,1,26,7,36,3.14,7,Rain-Thunderstorm,155
2014-3-29,59,51,43,57,45,36,100,78,55,30.25,30.06,29.85,10,8,2,23,12,30,0.16,6,Rain-Thunderstorm,352
2014-3-30,66,52,37,41,35,27,85,55,24,30.30,30.22,30.12,10,9,5,9,2,15,0.00,1,,49
2014-3-31,77,60,43,41,37,26,76,46,16,30.12,30.04,29.94,10,10,10,20,8,25,T,6,,182